sensor_id;sensor_type;location;lat;lon;timestamp;P1;durP1;ratioP1;P2;durP2;ratioP2
3696;SDS011;60662;48.810;8.872;2023-04-03T07:50:20;5.72;;;2.35;;
3696;SDS011;60662;48.810;8.872;2023-04-03T07:51:21;6.10;;;2.30;;
3696;SDS011;60662;48.810;8.872;2023-04-03T07:52:23;3.13;;;1.88;;
3696;SDS011;60662;48.810;8.872;2023-04-03T07:53:25;4.45;;;2.40;;
3696;SDS011;60662;48.810;8.872;2023-04-03T07:54:26;9.95;;;2.30;;
3696;SDS011;60662;48.810;8.872;2023-04-03T07:56:16;3.83;;;1.75;;
3696;SDS011;60662;48.810;8.872;2023-04-03T07:57:18;3.15;;;1.85;;
3696;SDS011;60662;48.810;8.872;2023-04-03T07:58:22;11.18;;;1.95;;
3696;SDS011;60662;48.810;8.872;2023-04-03T07:59:24;3.38;;;1.67;;
3696;SDS011;60662;48.810;8.872;2023-04-03T08:00:25;12.07;;;2.20;;
3696;SDS011;60662;48.810;8.872;2023-04-03T08:01:27;10.02;;;2.63;;
3696;SDS011;60662;48.810;8.872;2023-04-03T08:22:58;5.72;;;1.80;;
3696;SDS011;60662;48.810;8.872;2023-04-03T08:23:59;7.28;;;2.45;;
3696;SDS011;60662;48.810;8.872;2023-04-03T08:25:00;6.85;;;2.55;;
3696;SDS011;60662;48.810;8.872;2023-04-03T08:26:09;3.92;;;2.10;;
3696;SDS011;60662;48.810;8.872;2023-04-03T08:27:12;5.60;;;2.17;;
3696;SDS011;60662;48.810;8.872;2023-04-03T08:28:13;6.07;;;2.25;;
3696;SDS011;60662;48.810;8.872;2023-04-03T08:29:15;7.68;;;2.17;;
3696;SDS011;60662;48.810;8.872;2023-04-03T08:30:17;5.18;;;2.35;;
3696;SDS011;60662;48.810;8.872;2023-04-03T08:31:18;7.93;;;2.17;;
3696;SDS011;60662;48.810;8.872;2023-04-03T08:32:21;6.20;;;1.98;;
3696;SDS011;60662;48.810;8.872;2023-04-03T08:33:23;6.40;;;2.53;;
3696;SDS011;60662;48.810;8.872;2023-04-03T08:34:24;4.85;;;1.67;;
3696;SDS011;60662;48.810;8.872;2023-04-03T08:35:26;7.63;;;2.30;;
3696;SDS011;60662;48.810;8.872;2023-04-03T08:36:28;4.78;;;2.25;;
3696;SDS011;60662;48.810;8.872;2023-04-03T08:37:30;12.27;;;2.75;;
3696;SDS011;60662;48.810;8.872;2023-04-03T08:49:35;4.93;;;2.13;;
3696;SDS011;60662;48.810;8.872;2023-04-03T08:50:45;8.15;;;3.17;;
3696;SDS011;60662;48.810;8.872;2023-04-03T08:51:53;5.78;;;2.03;;
3696;SDS011;60662;48.810;8.872;2023-04-03T08:52:57;4.47;;;1.90;;
3696;SDS011;60662;48.810;8.872;2023-04-03T08:54:06;4.38;;;2.25;;
3696;SDS011;60662;48.810;8.872;2023-04-03T08:55:25;8.55;;;3.13;;
3696;SDS011;60662;48.810;8.872;2023-04-03T08:56:29;5.15;;;2.55;;
3696;SDS011;60662;48.810;8.872;2023-04-03T08:57:38;5.13;;;1.95;;
3696;SDS011;60662;48.810;8.872;2023-04-03T08:58:57;8.07;;;2.70;;
3696;SDS011;60662;48.810;8.872;2023-04-03T09:00:06;8.57;;;2.08;;
3696;SDS011;60662;48.810;8.872;2023-04-03T09:01:33;4.50;;;2.20;;
3696;SDS011;60662;48.810;8.872;2023-04-03T09:02:41;10.05;;;2.45;;
3696;SDS011;60662;48.810;8.872;2023-04-03T09:03:48;3.00;;;1.80;;
3696;SDS011;60662;48.810;8.872;2023-04-03T09:04:49;4.75;;;1.90;;
3696;SDS011;60662;48.810;8.872;2023-04-03T09:07:00;6.65;;;2.25;;
3696;SDS011;60662;48.810;8.872;2023-04-03T09:09:38;7.07;;;2.08;;
3696;SDS011;60662;48.810;8.872;2023-04-03T09:10:42;6.22;;;1.95;;
3696;SDS011;60662;48.810;8.872;2023-04-03T09:11:51;9.35;;;2.47;;
3696;SDS011;60662;48.810;8.872;2023-04-03T09:13:13;4.88;;;1.80;;
3696;SDS011;60662;48.810;8.872;2023-04-03T09:14:22;8.07;;;2.08;;
3696;SDS011;60662;48.810;8.872;2023-04-03T09:15:29;6.93;;;2.42;;
3696;SDS011;60662;48.810;8.872;2023-04-03T09:16:55;5.22;;;1.70;;
3696;SDS011;60662;48.810;8.872;2023-04-03T09:18:02;4.85;;;2.28;;
3696;SDS011;60662;48.810;8.872;2023-04-03T09:21:48;5.30;;;2.10;;
3696;SDS011;60662;48.810;8.872;2023-04-03T09:22:49;7.25;;;2.42;;
3696;SDS011;60662;48.810;8.872;2023-04-03T09:23:53;6.13;;;2.05;;
3696;SDS011;60662;48.810;8.872;2023-04-03T09:25:05;6.07;;;2.20;;
3696;SDS011;60662;48.810;8.872;2023-04-03T09:26:16;6.70;;;2.55;;
3696;SDS011;60662;48.810;8.872;2023-04-03T09:27:20;8.05;;;2.35;;
3696;SDS011;60662;48.810;8.872;2023-04-03T09:28:22;6.97;;;2.00;;
3696;SDS011;60662;48.810;8.872;2023-04-03T09:29:23;9.68;;;2.15;;
3696;SDS011;60662;48.810;8.872;2023-04-03T09:30:26;4.03;;;1.58;;
3696;SDS011;60662;48.810;8.872;2023-04-03T09:31:38;7.35;;;2.28;;
3696;SDS011;60662;48.810;8.872;2023-04-03T09:32:47;11.00;;;2.08;;
3696;SDS011;60662;48.810;8.872;2023-04-03T09:33:56;7.85;;;2.42;;
3696;SDS011;60662;48.810;8.872;2023-04-03T09:35:16;7.65;;;2.00;;
3696;SDS011;60662;48.810;8.872;2023-04-03T09:36:43;3.97;;;1.40;;
3696;SDS011;60662;48.810;8.872;2023-04-03T09:37:48;5.63;;;2.63;;
3696;SDS011;60662;48.810;8.872;2023-04-03T09:39:05;3.78;;;1.70;;
3696;SDS011;60662;48.810;8.872;2023-04-03T09:41:27;6.45;;;2.30;;
3696;SDS011;60662;48.810;8.872;2023-04-03T09:42:29;3.28;;;1.73;;
3696;SDS011;60662;48.810;8.872;2023-04-03T09:43:33;3.45;;;1.48;;
3696;SDS011;60662;48.810;8.872;2023-04-03T09:44:37;3.08;;;1.98;;
3696;SDS011;60662;48.810;8.872;2023-04-03T09:45:39;3.95;;;1.60;;
3696;SDS011;60662;48.810;8.872;2023-04-03T09:46:41;4.97;;;1.85;;
3696;SDS011;60662;48.810;8.872;2023-04-03T09:47:43;5.88;;;2.17;;
3696;SDS011;60662;48.810;8.872;2023-04-03T09:48:52;9.52;;;2.08;;
3696;SDS011;60662;48.810;8.872;2023-04-03T09:50:19;4.57;;;2.08;;
3696;SDS011;60662;48.810;8.872;2023-04-03T09:51:27;5.55;;;2.22;;
3696;SDS011;60662;48.810;8.872;2023-04-03T09:52:29;6.20;;;2.05;;
3696;SDS011;60662;48.810;8.872;2023-04-03T09:53:42;4.07;;;1.60;;
3696;SDS011;60662;48.810;8.872;2023-04-03T09:54:45;7.35;;;2.38;;
3696;SDS011;60662;48.810;8.872;2023-04-03T09:55:46;4.80;;;1.80;;
3696;SDS011;60662;48.810;8.872;2023-04-03T09:56:51;6.90;;;2.10;;
3696;SDS011;60662;48.810;8.872;2023-04-03T09:57:58;6.68;;;1.77;;
3696;SDS011;60662;48.810;8.872;2023-04-03T10:00:03;4.75;;;1.90;;
3696;SDS011;60662;48.810;8.872;2023-04-03T10:01:06;6.38;;;1.77;;
3696;SDS011;60662;48.810;8.872;2023-04-03T10:03:40;3.20;;;1.70;;
3696;SDS011;60662;48.810;8.872;2023-04-03T10:04:47;5.75;;;2.40;;
3696;SDS011;60662;48.810;8.872;2023-04-03T10:06:21;5.47;;;1.73;;
3696;SDS011;60662;48.810;8.872;2023-04-03T10:07:32;5.03;;;1.98;;
3696;SDS011;60662;48.810;8.872;2023-04-03T10:08:36;3.63;;;1.75;;
3696;SDS011;60662;48.810;8.872;2023-04-03T10:09:38;4.95;;;1.90;;
3696;SDS011;60662;48.810;8.872;2023-04-03T10:10:47;5.43;;;2.30;;
3696;SDS011;60662;48.810;8.872;2023-04-03T10:12:09;7.40;;;2.15;;
3696;SDS011;60662;48.810;8.872;2023-04-03T10:13:14;3.75;;;1.60;;
3696;SDS011;60662;48.810;8.872;2023-04-03T10:14:22;3.15;;;1.75;;
3696;SDS011;60662;48.810;8.872;2023-04-03T10:15:23;7.93;;;2.50;;
3696;SDS011;60662;48.810;8.872;2023-04-03T10:19:00;5.70;;;2.65;;
3696;SDS011;60662;48.810;8.872;2023-04-03T10:20:31;4.45;;;1.90;;
3696;SDS011;60662;48.810;8.872;2023-04-03T10:24:22;4.47;;;1.27;;
3696;SDS011;60662;48.810;8.872;2023-04-03T10:25:32;5.65;;;1.42;;
3696;SDS011;60662;48.810;8.872;2023-04-03T10:28:25;5.55;;;1.50;;
3696;SDS011;60662;48.810;8.872;2023-04-03T10:29:37;5.10;;;1.88;;
3696;SDS011;60662;48.810;8.872;2023-04-03T10:33:45;6.80;;;1.70;;
3696;SDS011;60662;48.810;8.872;2023-04-03T10:34:50;2.75;;;1.35;;
3696;SDS011;60662;48.810;8.872;2023-04-03T10:37:27;3.03;;;1.63;;
3696;SDS011;60662;48.810;8.872;2023-04-03T10:40:20;5.95;;;1.70;;
3696;SDS011;60662;48.810;8.872;2023-04-03T10:43:21;3.92;;;1.50;;
3696;SDS011;60662;48.810;8.872;2023-04-03T10:44:32;3.83;;;1.58;;
3696;SDS011;60662;48.810;8.872;2023-04-03T10:47:21;4.38;;;1.25;;
3696;SDS011;60662;48.810;8.872;2023-04-03T10:48:41;4.38;;;1.75;;
3696;SDS011;60662;48.810;8.872;2023-04-03T10:51:25;1.90;;;1.10;;
3696;SDS011;60662;48.810;8.872;2023-04-03T10:53:44;2.38;;;1.40;;
3696;SDS011;60662;48.810;8.872;2023-04-03T10:56:48;6.55;;;1.60;;
3696;SDS011;60662;48.810;8.872;2023-04-03T10:58:01;6.07;;;1.73;;
3696;SDS011;60662;48.810;8.872;2023-04-03T11:00:20;5.57;;;1.65;;
3696;SDS011;60662;48.810;8.872;2023-04-03T11:01:27;9.32;;;1.75;;
3696;SDS011;60662;48.810;8.872;2023-04-03T11:02:48;7.00;;;2.05;;
3696;SDS011;60662;48.810;8.872;2023-04-03T11:03:54;7.28;;;1.92;;
3696;SDS011;60662;48.810;8.872;2023-04-03T11:05:06;2.63;;;1.35;;
3696;SDS011;60662;48.810;8.872;2023-04-03T11:06:16;5.45;;;1.60;;
3696;SDS011;60662;48.810;8.872;2023-04-03T11:07:25;5.13;;;1.80;;
3696;SDS011;60662;48.810;8.872;2023-04-03T11:08:33;4.95;;;2.00;;
3696;SDS011;60662;48.810;8.872;2023-04-03T11:09:41;5.22;;;1.80;;
3696;SDS011;60662;48.810;8.872;2023-04-03T11:10:45;6.00;;;2.00;;
3696;SDS011;60662;48.810;8.872;2023-04-03T11:11:51;6.40;;;1.88;;
3696;SDS011;60662;48.810;8.872;2023-04-03T11:13:01;3.15;;;1.40;;
3696;SDS011;60662;48.810;8.872;2023-04-03T11:14:26;5.93;;;2.45;;
3696;SDS011;60662;48.810;8.872;2023-04-03T11:15:30;7.68;;;2.30;;
3696;SDS011;60662;48.810;8.872;2023-04-03T11:16:35;3.15;;;1.77;;
3696;SDS011;60662;48.810;8.872;2023-04-03T11:18:03;4.07;;;2.00;;
3696;SDS011;60662;48.810;8.872;2023-04-03T11:19:12;5.30;;;1.85;;
3696;SDS011;60662;48.810;8.872;2023-04-03T11:20:29;5.88;;;1.95;;
3696;SDS011;60662;48.810;8.872;2023-04-03T11:21:36;3.63;;;1.80;;
3696;SDS011;60662;48.810;8.872;2023-04-03T11:22:42;7.65;;;2.20;;
3696;SDS011;60662;48.810;8.872;2023-04-03T11:23:46;2.15;;;1.30;;
3696;SDS011;60662;48.810;8.872;2023-04-03T11:24:54;8.05;;;1.73;;
3696;SDS011;60662;48.810;8.872;2023-04-03T11:26:08;7.43;;;1.63;;
3696;SDS011;60662;48.810;8.872;2023-04-03T12:45:19;4.30;;;1.45;;
3696;SDS011;60662;48.810;8.872;2023-04-03T12:46:22;2.60;;;1.58;;
3696;SDS011;60662;48.810;8.872;2023-04-03T12:47:27;2.63;;;1.38;;
3696;SDS011;60662;48.810;8.872;2023-04-03T12:48:53;5.80;;;1.70;;
3696;SDS011;60662;48.810;8.872;2023-04-03T12:49:56;2.75;;;1.40;;
3696;SDS011;60662;48.810;8.872;2023-04-03T12:50:59;5.90;;;1.52;;
3696;SDS011;60662;48.810;8.872;2023-04-03T12:52:03;2.90;;;1.50;;
3696;SDS011;60662;48.810;8.872;2023-04-03T12:53:11;29.73;;;17.77;;
3696;SDS011;60662;48.810;8.872;2023-04-03T12:54:18;32.47;;;14.25;;
3696;SDS011;60662;48.810;8.872;2023-04-03T12:55:23;33.22;;;17.55;;
3696;SDS011;60662;48.810;8.872;2023-04-03T12:56:26;47.92;;;23.00;;
3696;SDS011;60662;48.810;8.872;2023-04-03T12:57:33;7.53;;;2.88;;
3696;SDS011;60662;48.810;8.872;2023-04-03T12:58:34;6.90;;;1.50;;
3696;SDS011;60662;48.810;8.872;2023-04-03T12:59:36;2.85;;;1.42;;
3696;SDS011;60662;48.810;8.872;2023-04-03T13:00:39;3.50;;;1.35;;
3696;SDS011;60662;48.810;8.872;2023-04-03T13:01:40;9.18;;;1.58;;
3696;SDS011;60662;48.810;8.872;2023-04-03T13:02:43;2.08;;;1.50;;
3696;SDS011;60662;48.810;8.872;2023-04-03T13:03:53;6.28;;;1.65;;
3696;SDS011;60662;48.810;8.872;2023-04-03T13:04:58;5.38;;;1.90;;
3696;SDS011;60662;48.810;8.872;2023-04-03T13:06:05;4.57;;;1.33;;
3696;SDS011;60662;48.810;8.872;2023-04-03T13:07:17;4.05;;;1.55;;
3696;SDS011;60662;48.810;8.872;2023-04-03T13:08:20;3.20;;;1.30;;
3696;SDS011;60662;48.810;8.872;2023-04-03T13:09:23;3.05;;;1.15;;
3696;SDS011;60662;48.810;8.872;2023-04-03T13:10:27;4.70;;;1.88;;
3696;SDS011;60662;48.810;8.872;2023-04-03T13:11:35;3.47;;;1.55;;
3696;SDS011;60662;48.810;8.872;2023-04-03T13:12:52;2.17;;;1.23;;
3696;SDS011;60662;48.810;8.872;2023-04-03T13:13:59;4.05;;;1.33;;
3696;SDS011;60662;48.810;8.872;2023-04-03T13:15:14;3.92;;;1.35;;
3696;SDS011;60662;48.810;8.872;2023-04-03T13:16:21;4.15;;;1.67;;
3696;SDS011;60662;48.810;8.872;2023-04-03T13:17:23;4.32;;;1.30;;
3696;SDS011;60662;48.810;8.872;2023-04-03T13:18:30;3.85;;;1.30;;
3696;SDS011;60662;48.810;8.872;2023-04-03T13:19:33;3.05;;;1.35;;
3696;SDS011;60662;48.810;8.872;2023-04-03T13:20:34;5.20;;;1.50;;
3696;SDS011;60662;48.810;8.872;2023-04-03T13:21:38;3.35;;;1.20;;
3696;SDS011;60662;48.810;8.872;2023-04-03T13:22:42;3.38;;;1.40;;
3696;SDS011;60662;48.810;8.872;2023-04-03T13:23:54;4.82;;;1.60;;
3696;SDS011;60662;48.810;8.872;2023-04-03T13:25:15;4.80;;;1.60;;
3696;SDS011;60662;48.810;8.872;2023-04-03T13:26:18;4.32;;;1.52;;
3696;SDS011;60662;48.810;8.872;2023-04-03T13:27:22;5.03;;;1.35;;
3696;SDS011;60662;48.810;8.872;2023-04-03T13:28:24;11.73;;;2.05;;
3696;SDS011;60662;48.810;8.872;2023-04-03T13:29:30;3.33;;;1.20;;
3696;SDS011;60662;48.810;8.872;2023-04-03T13:30:35;3.05;;;1.50;;
3696;SDS011;60662;48.810;8.872;2023-04-03T13:31:39;3.28;;;1.60;;
3696;SDS011;60662;48.810;8.872;2023-04-03T13:32:41;4.15;;;1.60;;
3696;SDS011;60662;48.810;8.872;2023-04-03T13:34:57;7.63;;;1.42;;
3696;SDS011;60662;48.810;8.872;2023-04-03T13:37:23;5.40;;;1.30;;
3696;SDS011;60662;48.810;8.872;2023-04-03T13:38:28;4.68;;;1.50;;
3696;SDS011;60662;48.810;8.872;2023-04-03T13:39:36;4.25;;;1.60;;
3696;SDS011;60662;48.810;8.872;2023-04-03T13:40:49;4.03;;;1.17;;
3696;SDS011;60662;48.810;8.872;2023-04-03T13:41:59;3.78;;;1.60;;
3696;SDS011;60662;48.810;8.872;2023-04-03T13:43:14;3.55;;;1.65;;
3696;SDS011;60662;48.810;8.872;2023-04-03T13:45:25;5.78;;;1.48;;
3696;SDS011;60662;48.810;8.872;2023-04-03T13:46:29;6.97;;;1.90;;
3696;SDS011;60662;48.810;8.872;2023-04-03T13:47:38;5.50;;;1.50;;
3696;SDS011;60662;48.810;8.872;2023-04-03T13:48:48;2.17;;;1.40;;
3696;SDS011;60662;48.810;8.872;2023-04-03T13:50:01;6.15;;;1.65;;
3696;SDS011;60662;48.810;8.872;2023-04-03T13:52:33;5.05;;;2.00;;
3696;SDS011;60662;48.810;8.872;2023-04-03T13:53:54;4.28;;;1.70;;
3696;SDS011;60662;48.810;8.872;2023-04-03T13:54:59;3.05;;;1.27;;
3696;SDS011;60662;48.810;8.872;2023-04-03T14:09:15;4.95;;;1.67;;
3696;SDS011;60662;48.810;8.872;2023-04-03T14:10:18;4.05;;;1.60;;
3696;SDS011;60662;48.810;8.872;2023-04-03T14:11:21;8.05;;;2.22;;
3696;SDS011;60662;48.810;8.872;2023-04-03T14:12:31;6.85;;;1.85;;
3696;SDS011;60662;48.810;8.872;2023-04-03T14:13:35;3.20;;;1.23;;
3696;SDS011;60662;48.810;8.872;2023-04-03T14:14:36;3.55;;;1.90;;
3696;SDS011;60662;48.810;8.872;2023-04-03T14:15:39;8.30;;;1.73;;
3696;SDS011;60662;48.810;8.872;2023-04-03T14:16:42;5.38;;;1.45;;
3696;SDS011;60662;48.810;8.872;2023-04-03T14:17:49;4.70;;;1.90;;
3696;SDS011;60662;48.810;8.872;2023-04-03T14:18:52;3.65;;;1.30;;
3696;SDS011;60662;48.810;8.872;2023-04-03T14:19:55;3.38;;;1.50;;
3696;SDS011;60662;48.810;8.872;2023-04-03T14:20:57;3.85;;;1.90;;
3696;SDS011;60662;48.810;8.872;2023-04-03T14:21:59;4.32;;;1.55;;
3696;SDS011;60662;48.810;8.872;2023-04-03T14:23:01;3.45;;;1.52;;
3696;SDS011;60662;48.810;8.872;2023-04-03T14:24:03;4.65;;;1.63;;
3696;SDS011;60662;48.810;8.872;2023-04-03T14:25:05;3.58;;;1.35;;
3696;SDS011;60662;48.810;8.872;2023-04-03T14:26:14;5.10;;;1.50;;
3696;SDS011;60662;48.810;8.872;2023-04-03T14:28:26;5.80;;;1.38;;
3696;SDS011;60662;48.810;8.872;2023-04-03T14:29:28;3.35;;;1.30;;
3696;SDS011;60662;48.810;8.872;2023-04-03T14:30:30;5.10;;;1.92;;
3696;SDS011;60662;48.810;8.872;2023-04-03T14:31:33;7.85;;;2.90;;
3696;SDS011;60662;48.810;8.872;2023-04-03T14:32:35;6.03;;;1.73;;
3696;SDS011;60662;48.810;8.872;2023-04-03T15:03:19;8.15;;;1.90;;
3696;SDS011;60662;48.810;8.872;2023-04-03T15:04:23;3.13;;;1.20;;
3696;SDS011;60662;48.810;8.872;2023-04-03T15:05:24;4.53;;;2.00;;
3696;SDS011;60662;48.810;8.872;2023-04-03T15:08:59;4.28;;;1.73;;
3696;SDS011;60662;48.810;8.872;2023-04-03T15:10:17;2.42;;;1.10;;
3696;SDS011;60662;48.810;8.872;2023-04-03T15:11:22;2.38;;;1.30;;
3696;SDS011;60662;48.810;8.872;2023-04-03T15:12:24;3.92;;;1.88;;
3696;SDS011;60662;48.810;8.872;2023-04-03T15:13:26;6.18;;;1.42;;
3696;SDS011;60662;48.810;8.872;2023-04-03T15:14:28;10.02;;;2.83;;
3696;SDS011;60662;48.810;8.872;2023-04-03T15:51:49;5.18;;;1.40;;
3696;SDS011;60662;48.810;8.872;2023-04-03T15:52:51;6.85;;;2.00;;
3696;SDS011;60662;48.810;8.872;2023-04-03T15:53:55;3.78;;;1.52;;
3696;SDS011;60662;48.810;8.872;2023-04-03T15:54:57;4.15;;;1.70;;
3696;SDS011;60662;48.810;8.872;2023-04-03T15:55:58;5.15;;;1.58;;
3696;SDS011;60662;48.810;8.872;2023-04-03T15:56:59;4.30;;;1.40;;
3696;SDS011;60662;48.810;8.872;2023-04-03T15:58:01;5.30;;;1.85;;
3696;SDS011;60662;48.810;8.872;2023-04-03T15:59:03;3.83;;;1.35;;
3696;SDS011;60662;48.810;8.872;2023-04-03T16:00:05;4.20;;;1.60;;
3696;SDS011;60662;48.810;8.872;2023-04-03T16:01:09;3.25;;;1.40;;
3696;SDS011;60662;48.810;8.872;2023-04-03T16:02:12;8.95;;;1.92;;
3696;SDS011;60662;48.810;8.872;2023-04-03T16:03:15;3.53;;;1.10;;
3696;SDS011;60662;48.810;8.872;2023-04-03T16:04:19;5.50;;;1.40;;
3696;SDS011;60662;48.810;8.872;2023-04-03T16:05:22;4.10;;;1.55;;
3696;SDS011;60662;48.810;8.872;2023-04-03T16:06:24;2.60;;;1.38;;
